createdAt,value
2022-08-19T00:00:22.200Z,11.23
2022-08-19T00:01:28.855Z,11.73
2022-08-19T00:02:31.938Z,11.52
2022-08-19T00:03:33.603Z,11.75
2022-08-19T00:04:37.677Z,10.90
2022-08-19T00:05:39.587Z,12.00
2022-08-19T00:06:43.448Z,11.65
2022-08-19T00:07:45.126Z,12.13
2022-08-19T00:08:46.850Z,12.88
2022-08-19T00:09:48.481Z,12.13
2022-08-19T00:10:50.386Z,12.52
2022-08-19T00:11:54.040Z,12.30
2022-08-19T00:12:55.956Z,11.63
2022-08-19T00:13:58.194Z,12.82
2022-08-19T00:14:59.886Z,12.43
2022-08-19T00:16:02.134Z,11.95
2022-08-19T00:17:04.438Z,12.40
2022-08-19T00:18:06.115Z,12.48
2022-08-19T00:19:08.701Z,12.80
2022-08-19T00:20:13.647Z,12.32
2022-08-19T00:21:16.734Z,12.68
2022-08-19T00:22:19.174Z,12.15
2022-08-19T00:23:21.205Z,12.57
2022-08-19T00:24:23.623Z,12.38
2022-08-19T00:25:30.048Z,13.00
2022-08-19T00:26:32.640Z,13.38
2022-08-19T00:27:35.344Z,12.90
2022-08-19T00:28:37.883Z,12.55
2022-08-19T00:29:39.763Z,12.80
2022-08-19T00:30:41.889Z,12.63
2022-08-19T00:31:44.726Z,13.45
2022-08-19T00:32:46.799Z,13.38
2022-08-19T00:33:51.388Z,12.48
2022-08-19T00:34:53.768Z,13.13
2022-08-19T00:35:56.362Z,13.15
2022-08-19T00:36:58.704Z,13.27
2022-08-19T00:38:00.557Z,13.35
2022-08-19T00:39:02.287Z,13.35
2022-08-19T00:40:06.686Z,13.57
2022-08-19T00:41:09.830Z,13.00
2022-08-19T00:42:11.728Z,13.05
2022-08-19T00:43:14.777Z,13.70
2022-08-19T00:44:27.125Z,13.65
2022-08-19T00:45:32.641Z,12.77
2022-08-19T00:46:41.047Z,13.98
2022-08-19T00:47:42.870Z,13.48
2022-08-19T00:48:44.637Z,12.95
2022-08-19T00:49:52.498Z,13.68
2022-08-19T00:50:55.264Z,13.07
2022-08-19T00:52:08.226Z,13.57
2022-08-19T00:53:13.094Z,13.43
2022-08-19T00:54:16.051Z,13.38
2022-08-19T00:55:25.107Z,13.77
2022-08-19T00:56:27.974Z,12.93
2022-08-19T00:57:42.875Z,13.13
2022-08-19T00:58:45.883Z,13.35
2022-08-19T01:00:01.967Z,14.00
2022-08-19T01:01:06.231Z,13.15
2022-08-19T01:02:08.016Z,13.52
2022-08-19T01:03:13.684Z,13.60
2022-08-19T01:04:15.298Z,12.95
2022-08-19T01:05:21.951Z,13.30
2022-08-19T01:06:24.662Z,13.27
2022-08-19T01:07:26.407Z,13.88
2022-08-19T01:08:28.053Z,13.27
2022-08-19T01:09:30.985Z,13.65
2022-08-19T01:10:40.293Z,13.43
2022-08-19T01:11:44.977Z,14.38
2022-08-19T01:12:48.195Z,13.82
2022-08-19T01:13:53.195Z,12.88
2022-08-19T01:14:56.389Z,13.38
2022-08-19T01:16:05.658Z,14.80
2022-08-19T01:17:11.047Z,14.27
2022-08-19T01:18:16.277Z,13.80
2022-08-19T01:19:28.599Z,15.02
2022-08-19T01:20:30.303Z,13.27
2022-08-19T01:21:38.733Z,13.57
2022-08-19T01:22:47.537Z,13.80
2022-08-19T01:23:49.432Z,14.18
2022-08-19T01:24:52.812Z,14.52
2022-08-19T01:25:57.052Z,13.57
2022-08-19T01:27:00.894Z,13.68
2022-08-19T01:28:09.890Z,13.52
2022-08-19T01:29:12.966Z,14.48
2022-08-19T01:30:23.421Z,13.40
2022-08-19T01:31:32.559Z,13.75
2022-08-19T01:32:34.886Z,14.82
2022-08-19T01:33:36.684Z,13.65
2022-08-19T01:34:38.679Z,13.38
2022-08-19T01:35:41.935Z,13.48
2022-08-19T01:36:50.091Z,14.02
2022-08-19T01:37:57.615Z,13.52
2022-08-19T01:39:00.944Z,13.75
2022-08-19T01:40:07.545Z,13.25
2022-08-19T01:41:12.996Z,13.70
2022-08-19T01:42:14.655Z,13.57
2022-08-19T01:43:16.524Z,14.38
2022-08-19T01:44:21.192Z,13.25
2022-08-19T01:45:25.691Z,13.63
2022-08-19T01:46:28.151Z,12.73
2022-08-19T01:47:29.857Z,13.10
2022-08-19T01:48:38.497Z,13.90
2022-08-19T01:49:40.233Z,14.07
2022-08-19T01:50:42.681Z,13.35
2022-08-19T01:51:44.425Z,13.68
2022-08-19T01:52:46.898Z,13.48
2022-08-19T01:54:00.939Z,13.98
2022-08-19T01:55:02.616Z,13.15
2022-08-19T01:56:05.219Z,13.50
2022-08-19T01:57:12.141Z,14.45
2022-08-19T01:58:19.673Z,13.43
2022-08-19T01:59:23.979Z,13.35
2022-08-19T02:00:29.026Z,13.50
2022-08-19T02:01:33.074Z,12.90
2022-08-19T02:02:34.982Z,13.73
2022-08-19T02:03:36.718Z,13.57
2022-08-19T02:04:39.555Z,14.23
2022-08-19T02:05:42.019Z,13.95
2022-08-19T02:06:43.827Z,13.88
2022-08-19T02:07:45.830Z,13.32
2022-08-19T02:08:48.751Z,14.85
2022-08-19T02:09:53.056Z,13.63
2022-08-19T02:10:54.860Z,13.07
2022-08-19T02:11:57.106Z,13.40
2022-08-19T02:12:59.111Z,14.40
2022-08-19T02:14:06.653Z,13.70
2022-08-19T02:15:08.883Z,13.85
2022-08-19T02:16:10.885Z,14.63
2022-08-19T02:17:12.938Z,14.88
2022-08-19T02:18:15.301Z,14.95
2022-08-19T02:19:17.208Z,14.18
2022-08-19T02:20:19.015Z,14.52
2022-08-19T02:21:22.983Z,14.65
2022-08-19T02:22:26.692Z,14.82
2022-08-19T02:23:28.424Z,15.05
2022-08-19T02:24:30.111Z,14.50
2022-08-19T02:25:32.055Z,15.60
2022-08-19T02:26:34.148Z,15.68
2022-08-19T02:27:35.898Z,15.00
2022-08-19T02:28:37.574Z,16.08
2022-08-19T02:29:39.230Z,15.57
2022-08-19T02:30:43.226Z,16.00
2022-08-19T02:31:45.458Z,15.68
2022-08-19T02:32:47.709Z,15.80
2022-08-19T02:33:49.637Z,16.55
2022-08-19T02:34:51.498Z,15.82
2022-08-19T02:35:53.276Z,16.95
2022-08-19T02:36:55.201Z,16.25
2022-08-19T02:38:15.577Z,16.88
2022-08-19T02:39:17.454Z,16.17
2022-08-19T02:40:19.526Z,16.77
2022-08-19T02:41:26.755Z,16.52
2022-08-19T02:42:29.014Z,16.95
2022-08-19T02:43:34.463Z,16.65
2022-08-19T02:44:36.311Z,16.83
2022-08-19T02:45:41.569Z,16.42
2022-08-19T02:46:45.894Z,15.98
2022-08-19T02:47:47.726Z,17.27
2022-08-19T02:48:52.556Z,17.65
2022-08-19T02:49:54.160Z,16.58
2022-08-19T02:50:56.384Z,16.52
2022-08-19T02:51:58.117Z,18.60
2022-08-19T02:52:59.827Z,17.20
2022-08-19T02:54:02.430Z,17.20
2022-08-19T02:55:04.989Z,17.77
2022-08-19T02:56:08.816Z,18.35
2022-08-19T02:57:10.753Z,16.67
2022-08-19T02:58:13.315Z,17.02
2022-08-19T02:59:15.091Z,18.08
2022-08-19T03:00:17.488Z,17.40
2022-08-19T03:01:28.165Z,17.27
2022-08-19T03:03:32.401Z,15.38
2022-08-19T03:04:34.437Z,17.13
2022-08-19T03:05:48.248Z,17.25
2022-08-19T03:07:02.565Z,17.17
2022-08-19T03:08:13.600Z,17.15
2022-08-19T03:09:15.654Z,16.88
2022-08-19T03:10:17.804Z,17.65
2022-08-19T03:11:21.398Z,16.98
2022-08-19T03:12:23.285Z,17.27
2022-08-19T03:13:24.991Z,17.58
2022-08-19T03:14:26.838Z,16.38
2022-08-19T03:15:28.807Z,16.30
2022-08-19T03:16:33.147Z,17.35
2022-08-19T03:17:36.230Z,15.98
2022-08-19T03:18:38.372Z,16.38
2022-08-19T03:19:40.355Z,16.27
2022-08-19T03:20:48.965Z,16.55
2022-08-19T03:21:51.760Z,15.30
2022-08-19T03:22:53.569Z,16.23
2022-08-19T03:23:56.587Z,17.25
2022-08-19T03:24:58.400Z,16.13
2022-08-19T03:26:15.984Z,14.98
2022-08-19T03:27:18.838Z,15.57
2022-08-19T03:28:22.082Z,16.00
2022-08-19T03:29:28.349Z,15.98
2022-08-19T03:30:33.178Z,17.50
2022-08-19T03:31:44.942Z,16.15
2022-08-19T03:32:57.051Z,16.65
2022-08-19T03:33:59.283Z,17.17
2022-08-19T03:35:01.282Z,16.88
2022-08-19T03:36:09.341Z,16.75
2022-08-19T03:37:15.389Z,16.25
2022-08-19T03:38:17.069Z,17.15
2022-08-19T03:39:19.253Z,16.25
2022-08-19T03:40:21.149Z,16.30
2022-08-19T03:41:27.067Z,16.27
2022-08-19T03:42:49.427Z,17.05
2022-08-19T03:43:52.711Z,17.35
2022-08-19T03:44:54.505Z,17.75
2022-08-19T03:46:08.069Z,17.30
2022-08-19T03:47:09.862Z,18.20
2022-08-19T03:48:11.539Z,17.35
2022-08-19T03:49:13.961Z,18.75
2022-08-19T03:50:17.288Z,19.23
2022-08-19T03:51:30.862Z,18.67
2022-08-19T03:52:32.956Z,18.38
2022-08-19T03:53:36.734Z,19.77
2022-08-19T03:54:39.368Z,18.33
2022-08-19T03:55:42.756Z,17.92
2022-08-19T03:56:45.754Z,18.50
2022-08-19T03:57:49.604Z,18.85
2022-08-19T03:58:51.165Z,18.60
2022-08-19T03:59:53.365Z,18.67
2022-08-19T04:00:58.105Z,18.58
2022-08-19T04:02:02.216Z,18.13
2022-08-19T04:03:04.256Z,18.85
2022-08-19T04:04:06.282Z,18.83
2022-08-19T04:05:09.253Z,18.38
2022-08-19T04:06:23.852Z,19.45
2022-08-19T04:07:25.861Z,18.65
2022-08-19T04:08:27.911Z,18.75
2022-08-19T04:09:29.888Z,17.95
2022-08-19T04:10:32.293Z,17.85
2022-08-19T04:11:44.634Z,19.23
2022-08-19T04:12:47.346Z,18.15
2022-08-19T04:13:53.474Z,18.90
2022-08-19T04:14:55.468Z,19.63
2022-08-19T04:15:57.549Z,19.65
2022-08-19T04:17:01.169Z,19.00
2022-08-19T04:18:03.065Z,18.27
2022-08-19T04:19:06.030Z,18.33
2022-08-19T04:20:08.323Z,18.58
2022-08-19T04:21:17.402Z,18.73
2022-08-19T04:22:19.603Z,18.77
2022-08-19T04:23:21.262Z,19.20
2022-08-19T04:24:23.974Z,18.65
2022-08-19T04:25:25.615Z,19.02
2022-08-19T04:26:33.229Z,19.00
2022-08-19T04:27:35.065Z,19.00
2022-08-19T04:28:37.760Z,18.75
2022-08-19T04:29:40.500Z,18.88
2022-08-19T04:30:50.895Z,19.98
2022-08-19T04:31:54.745Z,19.33
2022-08-19T04:32:56.363Z,19.08
2022-08-19T04:34:00.936Z,18.85
2022-08-19T04:35:16.805Z,18.90
2022-08-19T04:36:23.037Z,18.90
2022-08-19T04:37:25.681Z,19.15
2022-08-19T04:38:27.315Z,18.05
2022-08-19T04:39:49.884Z,17.20
2022-08-19T04:41:11.632Z,19.00
2022-08-19T04:42:33.022Z,17.63
2022-08-19T04:43:37.224Z,15.98
2022-08-19T04:44:45.991Z,17.45
2022-08-19T04:45:48.811Z,17.60
2022-08-19T04:46:52.134Z,17.88
2022-08-19T04:48:26.449Z,17.27
2022-08-19T04:49:23.298Z,18.20
2022-08-19T04:50:28.478Z,17.95
2022-08-19T04:51:32.225Z,17.50
2022-08-19T04:52:34.917Z,18.80
2022-08-19T04:53:38.507Z,17.67
2022-08-19T04:54:40.226Z,17.90
2022-08-19T04:55:43.431Z,16.95
2022-08-19T04:56:45.225Z,17.02
2022-08-19T04:57:47.054Z,17.30
2022-08-19T04:58:51.552Z,16.75
2022-08-19T04:59:56.925Z,17.52
2022-08-19T05:01:01.001Z,17.27
2022-08-19T05:02:03.771Z,17.23
2022-08-19T05:03:07.780Z,16.23
2022-08-19T05:04:10.247Z,17.40
2022-08-19T05:05:12.085Z,17.02
2022-08-19T05:06:16.418Z,17.13
2022-08-19T05:07:18.187Z,17.13
2022-08-19T05:08:30.969Z,17.63
2022-08-19T05:09:56.728Z,18.05
2022-08-19T05:10:55.115Z,17.10
2022-08-19T05:11:56.847Z,17.95
2022-08-19T05:12:58.639Z,17.25
2022-08-19T05:14:00.667Z,17.15
2022-08-19T05:15:04.807Z,18.85
2022-08-19T05:16:07.609Z,18.58
2022-08-19T05:17:26.629Z,18.63
2022-08-19T05:18:47.965Z,17.17
2022-08-19T05:20:08.206Z,16.75
2022-08-19T05:21:30.962Z,16.90
2022-08-19T05:22:35.568Z,18.13
2022-08-19T05:23:37.339Z,17.63
2022-08-19T05:24:56.463Z,17.92
2022-08-19T05:26:01.132Z,18.38
2022-08-19T05:27:05.379Z,17.83
2022-08-19T05:28:07.009Z,17.85
2022-08-19T05:29:10.330Z,17.48
2022-08-19T05:30:12.845Z,17.35
2022-08-19T05:31:14.752Z,18.13
2022-08-19T05:32:17.307Z,17.38
2022-08-19T05:33:19.564Z,17.88
2022-08-19T05:34:23.030Z,18.42
2022-08-19T05:35:25.180Z,17.73
2022-08-19T05:36:27.957Z,18.05
2022-08-19T05:37:29.834Z,19.02
2022-08-19T05:38:31.458Z,17.65
2022-08-19T05:39:36.520Z,17.63
2022-08-19T05:40:39.787Z,17.27
2022-08-19T05:41:47.447Z,18.45
2022-08-19T05:42:51.381Z,18.27
2022-08-19T05:43:58.608Z,17.67
2022-08-19T05:45:00.317Z,18.88
2022-08-19T05:46:02.604Z,18.88
2022-08-19T05:47:07.449Z,18.83
2022-08-19T05:48:12.164Z,18.05
2022-08-19T05:49:16.647Z,17.10
2022-08-19T05:50:18.582Z,18.85
2022-08-19T05:51:20.427Z,18.15
2022-08-19T05:52:25.781Z,18.35
2022-08-19T05:53:28.007Z,18.95
2022-08-19T05:54:29.662Z,17.85
2022-08-19T05:55:31.940Z,18.65
2022-08-19T05:56:36.658Z,18.40
2022-08-19T05:57:38.597Z,18.80
2022-08-19T05:58:40.350Z,16.65
2022-08-19T05:59:42.938Z,18.23
2022-08-19T06:00:46.065Z,19.08
2022-08-19T06:01:51.478Z,17.83
2022-08-19T06:02:53.496Z,17.38
2022-08-19T06:03:55.269Z,17.98
2022-08-19T06:04:57.014Z,18.40
2022-08-19T06:06:00.319Z,17.92
2022-08-19T06:07:12.676Z,18.77
2022-08-19T06:08:14.864Z,17.05
2022-08-19T06:09:16.545Z,17.15
2022-08-19T06:10:18.309Z,16.63
2022-08-19T06:11:33.657Z,17.42
2022-08-19T06:12:36.530Z,16.67
2022-08-19T06:13:38.173Z,17.73
2022-08-19T06:14:41.875Z,17.88
2022-08-19T06:15:45.301Z,16.45
2022-08-19T06:16:47.029Z,16.38
2022-08-19T06:17:48.956Z,17.23
2022-08-19T06:18:55.058Z,17.27
2022-08-19T06:19:57.237Z,17.70
2022-08-19T06:20:58.996Z,16.95
2022-08-19T06:22:01.118Z,16.90
2022-08-19T06:23:04.181Z,15.73
2022-08-19T06:24:07.681Z,16.67
2022-08-19T06:25:12.598Z,16.65
2022-08-19T06:26:16.332Z,17.13
2022-08-19T06:27:17.942Z,17.95
2022-08-19T06:28:20.302Z,16.90
2022-08-19T06:29:25.853Z,16.15
2022-08-19T06:30:28.119Z,16.77
2022-08-19T06:31:32.322Z,18.42
2022-08-19T06:32:34.103Z,16.52
2022-08-19T06:33:36.736Z,16.80
2022-08-19T06:34:39.114Z,17.70
2022-08-19T06:35:42.665Z,16.13
2022-08-19T06:36:52.161Z,17.80
2022-08-19T06:37:54.646Z,16.80
2022-08-19T06:39:00.085Z,17.25
2022-08-19T06:40:01.885Z,17.13
2022-08-19T06:41:07.328Z,17.17
2022-08-19T06:42:12.581Z,18.08
2022-08-19T06:43:16.528Z,18.67
2022-08-19T06:44:22.398Z,17.70
2022-08-19T06:45:34.438Z,16.90
2022-08-19T06:46:38.826Z,17.98
2022-08-19T06:47:44.845Z,18.08
2022-08-19T06:48:47.829Z,16.67
2022-08-19T06:49:49.781Z,15.80
2022-08-19T06:50:52.799Z,16.25
2022-08-19T06:51:54.496Z,16.63
2022-08-19T06:52:56.509Z,18.17
2022-08-19T06:53:58.789Z,16.75
2022-08-19T06:55:01.480Z,16.73
2022-08-19T06:56:07.808Z,18.25
2022-08-19T06:57:14.295Z,18.27
2022-08-19T06:58:16.342Z,18.38
2022-08-19T06:59:23.886Z,18.65
2022-08-19T07:00:25.567Z,18.02
2022-08-19T07:01:27.765Z,18.05
2022-08-19T07:02:29.767Z,17.95
2022-08-19T07:03:33.965Z,17.15
2022-08-19T07:04:42.075Z,16.35
2022-08-19T07:05:45.797Z,16.48
2022-08-19T07:06:54.873Z,16.23
2022-08-19T07:08:01.643Z,17.33
2022-08-19T07:09:08.217Z,15.65
2022-08-19T07:10:10.775Z,17.55
2022-08-19T07:11:14.878Z,18.45
2022-08-19T07:12:16.565Z,16.83
2022-08-19T07:13:18.264Z,17.63
2022-08-19T07:14:22.415Z,17.42
2022-08-19T07:15:24.511Z,16.90
2022-08-19T07:16:28.871Z,18.25
2022-08-19T07:17:31.297Z,16.70
2022-08-19T07:18:33.185Z,17.05
2022-08-19T07:19:35.500Z,16.15
2022-08-19T07:20:38.074Z,15.88
2022-08-19T07:21:42.374Z,16.88
2022-08-19T07:22:44.041Z,16.88
2022-08-19T07:23:46.509Z,18.20
2022-08-19T07:24:51.118Z,17.00
2022-08-19T07:25:53.493Z,16.52
2022-08-19T07:27:02.679Z,17.67
2022-08-19T07:28:04.916Z,17.67
2022-08-19T07:29:07.401Z,18.23
2022-08-19T07:30:14.462Z,17.42
2022-08-19T07:31:25.486Z,17.48
2022-08-19T07:32:27.887Z,17.13
2022-08-19T07:33:33.376Z,17.45
2022-08-19T07:34:38.516Z,17.20
2022-08-19T07:35:42.263Z,16.38
2022-08-19T07:36:44.833Z,17.05
2022-08-19T07:37:47.155Z,17.67
2022-08-19T07:38:51.219Z,18.05
2022-08-19T07:39:52.953Z,18.42
2022-08-19T07:40:55.163Z,17.77
2022-08-19T07:41:58.637Z,17.70
2022-08-19T07:43:00.320Z,17.42
2022-08-19T07:44:04.817Z,18.67
2022-08-19T07:45:08.150Z,17.85
2022-08-19T07:47:47.989Z,17.67
2022-08-19T07:48:42.438Z,19.00
2022-08-19T07:49:44.134Z,18.52
2022-08-19T07:50:46.499Z,19.25
2022-08-19T07:51:51.521Z,21.45
2022-08-19T07:52:53.381Z,21.42
2022-08-19T07:53:55.602Z,22.08
2022-08-19T07:54:58.379Z,22.30
2022-08-19T07:56:04.631Z,21.73
2022-08-19T07:57:07.821Z,22.77
2022-08-19T07:58:09.862Z,23.13
2022-08-19T07:59:11.554Z,22.30
2022-08-19T08:00:13.903Z,21.63
2022-08-19T08:01:22.316Z,21.63
2022-08-19T08:02:24.008Z,20.65
2022-08-19T08:03:46.972Z,21.08
2022-08-19T08:05:07.031Z,22.17
2022-08-19T08:06:28.047Z,21.40
2022-08-19T08:07:48.869Z,22.55
2022-08-19T08:09:09.257Z,21.63
2022-08-19T08:10:21.324Z,20.92
2022-08-19T08:11:24.096Z,23.00
2022-08-19T08:12:35.026Z,22.02
2022-08-19T08:13:39.119Z,22.45
2022-08-19T08:14:48.616Z,21.05
2022-08-19T08:15:51.654Z,20.77
2022-08-19T08:16:54.846Z,21.70
2022-08-19T08:17:58.589Z,21.00
2022-08-19T08:19:01.281Z,20.58
2022-08-19T08:20:07.825Z,20.65
2022-08-19T08:21:09.846Z,22.50
2022-08-19T08:22:35.263Z,22.10
2022-08-19T08:23:37.077Z,22.52
2022-08-19T08:24:41.560Z,23.50
2022-08-19T08:25:43.253Z,22.83
2022-08-19T08:26:47.001Z,23.75
2022-08-19T08:27:55.341Z,24.33
2022-08-19T08:28:57.510Z,25.40
2022-08-19T08:29:59.381Z,28.23
2022-08-19T08:31:09.554Z,29.20
2022-08-19T08:32:14.184Z,29.23
2022-08-19T08:33:32.712Z,27.13
2022-08-19T08:34:37.996Z,26.20
2022-08-19T08:35:46.513Z,25.65
2022-08-19T08:36:48.535Z,29.80
2022-08-19T08:37:53.252Z,28.67
2022-08-19T08:40:00.241Z,29.13
2022-08-19T08:41:20.226Z,27.70
2022-08-19T08:42:55.857Z,27.92
2022-08-19T08:43:58.231Z,28.48
2022-08-19T08:45:04.292Z,27.00
2022-08-19T08:46:08.993Z,27.40
2022-08-19T08:47:18.164Z,25.42
2022-08-19T08:48:44.128Z,24.58
2022-08-19T08:50:05.336Z,25.08
2022-08-19T08:51:15.181Z,24.60
2022-08-19T08:52:31.828Z,21.52
2022-08-19T08:53:40.483Z,20.42
2022-08-19T08:54:48.776Z,20.27
2022-08-19T08:55:56.560Z,19.75
2022-08-19T08:56:58.589Z,19.55
2022-08-19T08:58:08.590Z,20.48
2022-08-19T08:59:29.046Z,19.65
2022-08-19T09:00:37.653Z,18.92
2022-08-19T09:01:40.496Z,19.65
2022-08-19T09:02:43.393Z,19.80
2022-08-19T09:03:46.415Z,19.48
2022-08-19T09:04:49.580Z,20.30
2022-08-19T09:06:13.559Z,19.67
2022-08-19T09:07:35.389Z,18.13
2022-08-19T09:08:46.447Z,18.60
2022-08-19T09:09:53.185Z,18.95
2022-08-19T09:10:58.583Z,18.52
2022-08-19T09:12:11.982Z,18.05
2022-08-19T09:13:38.945Z,20.08
2022-08-19T09:14:52.170Z,21.63
2022-08-19T09:16:05.561Z,20.63
2022-08-19T09:17:09.111Z,21.63
2022-08-19T09:18:15.142Z,21.55
2022-08-19T09:19:22.355Z,21.63
2022-08-19T09:20:26.207Z,22.13
2022-08-19T09:21:34.273Z,22.23
2022-08-19T09:22:40.532Z,20.30
2022-08-19T09:23:44.684Z,22.48
2022-08-19T09:24:46.713Z,21.17
2022-08-19T09:25:48.427Z,20.65
2022-08-19T09:26:52.975Z,20.52
2022-08-19T09:28:03.098Z,21.30
2022-08-19T09:29:07.804Z,22.92
2022-08-19T09:30:13.745Z,24.55
2022-08-19T09:31:19.065Z,23.90
2022-08-19T09:32:26.816Z,22.92
2022-08-19T09:33:28.838Z,22.58
2022-08-19T09:34:37.994Z,22.30
2022-08-19T09:35:53.030Z,20.98
2022-08-19T09:36:59.164Z,22.00
2022-08-19T09:38:01.373Z,21.20
2022-08-19T09:39:14.821Z,20.67
2022-08-19T09:40:18.887Z,21.27
2022-08-19T09:41:22.496Z,21.05
2022-08-19T09:42:30.287Z,21.50
2022-08-19T09:43:44.245Z,22.23
2022-08-19T09:44:46.930Z,20.75
2022-08-19T09:45:48.889Z,22.10
2022-08-19T09:46:51.866Z,21.77
2022-08-19T09:47:55.265Z,20.83
2022-08-19T09:49:06.039Z,21.60
2022-08-19T09:50:11.809Z,20.27
2022-08-19T09:51:22.303Z,20.25
2022-08-19T09:52:25.067Z,20.85
2022-08-19T09:53:35.962Z,21.38
2022-08-19T09:54:40.129Z,20.30
2022-08-19T09:55:46.202Z,19.70
2022-08-19T09:56:48.041Z,21.55
2022-08-19T09:57:49.791Z,20.63
2022-08-19T09:58:51.746Z,21.60
2022-08-19T09:59:54.428Z,21.20
2022-08-19T10:00:57.308Z,20.90
2022-08-19T10:02:03.653Z,21.50
2022-08-19T10:03:12.623Z,20.88
2022-08-19T10:04:14.710Z,21.35
2022-08-19T10:05:42.475Z,21.50
2022-08-19T10:06:46.242Z,20.50
2022-08-19T10:07:48.791Z,20.15
2022-08-19T10:08:50.753Z,19.48
2022-08-19T10:09:52.496Z,20.13
2022-08-19T10:10:56.429Z,22.48
2022-08-19T10:12:02.559Z,18.85
2022-08-19T10:13:04.932Z,21.63
2022-08-19T10:14:07.154Z,19.20
2022-08-19T10:15:09.333Z,20.85
2022-08-19T10:16:15.716Z,20.15
2022-08-19T10:17:20.743Z,20.23
2022-08-19T10:18:25.642Z,20.27
2022-08-19T10:19:29.217Z,19.20
2022-08-19T10:20:31.516Z,20.60
2022-08-19T10:21:35.350Z,20.45
2022-08-19T10:22:38.415Z,20.02
2022-08-19T10:23:46.193Z,19.88
2022-08-19T10:24:48.012Z,19.17
2022-08-19T10:25:50.727Z,20.48
2022-08-19T10:26:57.392Z,19.30
2022-08-19T10:28:01.517Z,20.90
2022-08-19T10:29:05.653Z,20.20
2022-08-19T10:30:09.857Z,19.25
2022-08-19T10:32:01.216Z,20.00
2022-08-19T10:32:46.926Z,20.65
2022-08-19T10:33:53.914Z,20.70
2022-08-19T10:34:57.407Z,23.02
2022-08-19T10:36:05.595Z,22.00
2022-08-19T10:37:10.741Z,22.05
2022-08-19T10:38:12.556Z,20.85
2022-08-19T10:39:14.259Z,25.52
2022-08-19T10:40:16.307Z,20.77
2022-08-19T10:41:26.424Z,21.63
2022-08-19T10:42:28.368Z,20.50
2022-08-19T10:43:29.992Z,21.95
2022-08-19T10:44:33.195Z,20.73
2022-08-19T10:45:34.840Z,20.70
2022-08-19T10:46:45.135Z,22.50
2022-08-19T10:47:50.261Z,22.58
2022-08-19T10:48:53.367Z,21.10
2022-08-19T10:50:14.433Z,23.35
2022-08-19T10:51:36.088Z,22.90
2022-08-19T10:52:50.932Z,22.42
2022-08-19T10:53:52.698Z,22.02
2022-08-19T10:55:13.318Z,22.63
2022-08-19T10:56:34.653Z,22.27
2022-08-19T10:57:59.420Z,22.98
2022-08-19T10:58:59.105Z,23.15
2022-08-19T11:00:00.724Z,24.70
2022-08-19T11:01:02.511Z,22.52
2022-08-19T11:02:07.486Z,24.23
2022-08-19T11:03:09.523Z,26.80
2022-08-19T11:04:14.692Z,23.30
2022-08-19T11:05:18.122Z,23.52
2022-08-19T11:06:21.528Z,23.45
2022-08-19T11:07:26.164Z,24.98
2022-08-19T11:08:28.536Z,24.45
2022-08-19T11:09:33.919Z,24.13
2022-08-19T11:10:37.363Z,24.60
2022-08-19T11:11:41.777Z,25.60
2022-08-19T11:12:43.626Z,25.50
2022-08-19T11:13:47.447Z,27.13
2022-08-19T11:14:50.900Z,24.85
2022-08-19T11:16:07.699Z,24.55
2022-08-19T11:17:10.276Z,24.02
2022-08-19T11:18:13.326Z,24.55
2022-08-19T11:19:18.110Z,24.67
2022-08-19T11:20:19.881Z,24.95
2022-08-19T11:21:33.145Z,24.85
2022-08-19T11:22:40.528Z,24.48
2022-08-19T11:23:44.372Z,23.80
2022-08-19T11:24:46.006Z,24.85
2022-08-19T11:25:47.687Z,25.70
2022-08-19T11:26:51.478Z,25.63
2022-08-19T11:27:53.489Z,24.83
2022-08-19T11:28:55.680Z,24.35
2022-08-19T11:29:57.465Z,24.40
2022-08-19T11:30:59.179Z,24.48
2022-08-19T11:32:04.261Z,24.20
2022-08-19T11:33:05.955Z,25.30
2022-08-19T11:34:10.728Z,23.33
2022-08-19T11:35:12.687Z,26.20
2022-08-19T11:36:15.154Z,25.25
2022-08-19T11:37:17.045Z,24.30
2022-08-19T11:38:19.406Z,25.10
2022-08-19T11:39:23.142Z,24.90
2022-08-19T11:40:24.875Z,23.98
2022-08-19T11:41:27.124Z,23.05
2022-08-19T11:42:47.103Z,27.10
2022-08-19T11:43:48.880Z,27.20
2022-08-19T11:44:51.046Z,23.85
2022-08-19T11:45:52.890Z,24.95
2022-08-19T11:46:54.741Z,25.00
2022-08-19T11:47:56.940Z,24.42
2022-08-19T11:49:00.356Z,23.95
2022-08-19T11:50:02.340Z,26.20
2022-08-19T11:51:10.290Z,25.55
2022-08-19T11:52:12.142Z,24.80
2022-08-19T11:53:13.810Z,24.38
2022-08-19T11:54:17.296Z,27.00
2022-08-19T11:55:20.410Z,24.15
2022-08-19T11:56:23.169Z,25.27
2022-08-19T11:57:24.934Z,25.83
2022-08-19T11:58:26.636Z,24.75
2022-08-19T11:59:28.434Z,24.65
2022-08-19T12:00:31.410Z,25.75
2022-08-19T12:01:33.149Z,23.60
2022-08-19T12:02:34.922Z,23.42
2022-08-19T12:03:37.543Z,23.45
2022-08-19T12:04:39.309Z,22.83
2022-08-19T12:05:41.690Z,22.67
2022-08-19T12:06:43.377Z,23.38
2022-08-19T12:07:45.083Z,22.67
2022-08-19T12:08:48.443Z,21.75
2022-08-19T12:09:50.152Z,23.65
2022-08-19T12:10:52.051Z,22.65
2022-08-19T12:11:53.807Z,22.83
2022-08-19T12:12:58.870Z,23.33
2022-08-19T12:14:00.924Z,23.85
2022-08-19T12:15:03.271Z,22.25
2022-08-19T12:16:11.786Z,23.70
2022-08-19T12:17:14.369Z,23.77
2022-08-19T12:18:16.119Z,25.10
2022-08-19T12:19:21.795Z,24.25
2022-08-19T12:20:25.673Z,23.30
2022-08-19T12:21:31.560Z,24.10
2022-08-19T12:22:33.226Z,24.00
2022-08-19T12:23:34.930Z,25.35
2022-08-19T12:24:36.829Z,24.30
2022-08-19T12:25:49.368Z,25.13
2022-08-19T12:26:52.782Z,24.65
2022-08-19T12:27:57.449Z,23.83
2022-08-19T12:29:00.494Z,25.10
2022-08-19T12:30:06.270Z,23.92
2022-08-19T12:31:09.121Z,24.48
2022-08-19T12:32:12.192Z,25.77
2022-08-19T12:33:15.047Z,25.65
2022-08-19T12:34:17.166Z,26.38
2022-08-19T12:35:20.934Z,24.85
2022-08-19T12:36:24.231Z,24.38
2022-08-19T12:37:26.088Z,23.98
2022-08-19T12:38:28.168Z,25.38
2022-08-19T12:39:31.422Z,24.70
2022-08-19T12:40:33.182Z,25.88
2022-08-19T12:41:34.894Z,26.88
2022-08-19T12:42:43.074Z,26.63
2022-08-19T12:43:45.272Z,26.00
2022-08-19T12:44:48.324Z,26.63
2022-08-19T12:45:50.143Z,26.95
2022-08-19T12:46:53.713Z,25.92
2022-08-19T12:47:55.913Z,25.83
2022-08-19T12:48:59.097Z,25.20
2022-08-19T12:50:09.530Z,25.48
2022-08-19T12:51:14.458Z,23.05
2022-08-19T12:52:22.942Z,23.20
2022-08-19T12:53:25.836Z,22.23
2022-08-19T12:54:30.503Z,22.60
2022-08-19T12:55:32.697Z,22.50
2022-08-19T12:56:34.495Z,21.92
2022-08-19T12:57:36.665Z,22.02
2022-08-19T12:58:38.519Z,21.85
2022-08-19T12:59:40.326Z,23.42
2022-08-19T13:00:42.154Z,22.38
2022-08-19T13:01:44.969Z,21.25
2022-08-19T13:02:50.702Z,23.10
2022-08-19T13:03:53.476Z,21.23
2022-08-19T13:04:55.392Z,21.52
2022-08-19T13:05:57.701Z,21.30
2022-08-19T13:06:59.739Z,22.80
2022-08-19T13:08:01.473Z,22.55
2022-08-19T13:09:04.147Z,24.73
2022-08-19T13:10:08.455Z,25.42
2022-08-19T13:11:15.768Z,24.83
2022-08-19T13:12:18.130Z,24.92
2022-08-19T13:13:19.935Z,25.75
2022-08-19T13:14:21.559Z,26.17
2022-08-19T13:15:24.761Z,26.75
2022-08-19T13:16:28.610Z,26.35
2022-08-19T13:17:30.299Z,27.27
2022-08-19T13:18:32.548Z,28.98
2022-08-19T13:19:34.240Z,30.17
2022-08-19T13:20:37.159Z,29.85
2022-08-19T13:21:39.430Z,28.55
2022-08-19T13:22:41.108Z,28.92
2022-08-19T13:23:42.950Z,29.88
2022-08-19T13:24:47.278Z,31.98
2022-08-19T13:26:00.100Z,29.85
2022-08-19T13:27:02.040Z,33.20
2022-08-19T13:28:04.994Z,32.67
2022-08-19T13:29:25.260Z,32.72
2022-08-19T13:30:45.616Z,32.80
2022-08-19T13:32:05.916Z,32.60
2022-08-19T13:33:11.855Z,33.85
2022-08-19T13:34:15.532Z,33.67
2022-08-19T13:35:17.606Z,34.03
2022-08-19T13:36:19.195Z,32.22
2022-08-19T13:37:40.880Z,34.97
2022-08-19T13:38:42.674Z,35.55
2022-08-19T13:39:46.089Z,34.05
2022-08-19T13:40:48.663Z,33.60
2022-08-19T13:41:50.974Z,33.10
2022-08-19T13:42:55.436Z,34.30
2022-08-19T13:43:57.296Z,33.13
2022-08-19T13:44:59.496Z,31.60
2022-08-19T13:46:01.469Z,33.58
2022-08-19T13:47:08.113Z,33.35
2022-08-19T13:48:10.087Z,32.78
2022-08-19T13:49:13.892Z,34.05
2022-08-19T13:50:18.683Z,33.47
2022-08-19T13:51:20.468Z,36.08
2022-08-19T13:52:22.136Z,33.17
2022-08-19T13:53:24.541Z,32.60
2022-08-19T13:54:28.086Z,33.65
2022-08-19T13:55:29.934Z,32.55
2022-08-19T13:56:31.698Z,33.10
2022-08-19T13:57:33.555Z,32.08
2022-08-19T13:58:35.379Z,32.88
2022-08-19T13:59:37.291Z,33.55